Time;durP1;ratioP1;P1;durP2;ratioP2;P2;SDS_P1;SDS_P2;PMS_P1;PMS_P2;Temp;Humidity;BMP_temperature;BMP_pressure;BME280_temperature;BME280_humidity;BME280_pressure;Samples;Min_cycle;Max_cycle;Signal;HPM_P1;HPM_P2
2022/03/20 00:00:00;;;;;;;18.58;16.67;;;6.20;43.20;;;;;;20817;6818;117245;-69
2022/03/20 00:02:27;;;;;;;21.83;19.65;;;6.10;43.40;;;;;;20568;6818;336234;-69
2022/03/20 00:04:53;;;;;;;18.80;17.08;;;6.40;41.90;;;;;;20796;6818;117099;-69
2022/03/20 00:07:17;;;;;;;19.10;17.20;;;6.50;42.10;;;;;;20783;6818;117860;-69
2022/03/20 00:09:44;;;;;;;21.63;19.63;;;6.40;42.50;;;;;;20599;6818;311019;-69
2022/03/20 00:12:08;;;;;;;20.85;18.92;;;6.70;42.00;;;;;;20590;6818;335802;-69
2022/03/20 00:14:34;;;;;;;20.00;18.00;;;7.10;40.20;;;;;;20802;6818;123564;-69
2022/03/20 00:17:00;;;;;;;18.90;17.03;;;7.10;40.40;;;;;;20815;6818;117169;-70
2022/03/20 00:19:25;;;;;;;17.57;15.77;;;6.90;40.90;;;;;;20799;6818;117386;-70
2022/03/20 00:21:52;;;;;;;18.60;16.60;;;6.80;41.60;;;;;;20806;6818;117373;-70
2022/03/20 00:24:17;;;;;;;17.27;15.67;;;6.60;41.90;;;;;;20811;6818;117120;-69
2022/03/20 00:26:43;;;;;;;20.30;18.58;;;6.50;42.10;;;;;;20589;6818;306332;-70
2022/03/20 00:29:08;;;;;;;20.37;18.17;;;6.80;40.50;;;;;;20803;6818;117166;-70
2022/03/20 00:31:35;;;;;;;19.43;16.73;;;6.80;41.00;;;;;;20783;6818;117514;-70
2022/03/20 00:34:00;;;;;;;22.10;20.00;;;6.80;41.00;;;;;;20595;6818;320913;-69
2022/03/20 00:36:26;;;;;;;19.40;17.67;;;7.10;40.40;;;;;;20807;6816;117559;-70
2022/03/20 00:38:51;;;;;;;20.97;19.17;;;7.10;40.60;;;;;;20589;6817;336326;-69
2022/03/20 00:41:17;;;;;;;20.73;18.73;;;7.30;40.10;;;;;;20559;6817;312325;-70
2022/03/20 00:43:42;;;;;;;21.70;19.70;;;7.60;39.70;;;;;;20592;6817;277523;-70
2022/03/20 00:46:09;;;;;;;20.27;18.33;;;8.10;38.40;;;;;;20580;6817;312811;-70
2022/03/20 00:48:34;;;;;;;20.00;18.03;;;8.10;38.40;;;;;;20797;6817;117217;-69
2022/03/20 00:51:03;;;;;;;18.93;17.13;;;7.70;39.80;;;;;;20800;6817;117636;-69
2022/03/20 00:53:26;;;;;;;21.43;19.53;;;7.60;39.70;;;;;;20545;6817;342050;-69
2022/03/20 00:55:52;;;;;;;19.48;17.58;;;7.70;39.20;;;;;;20807;6817;123307;-69
2022/03/20 00:58:17;;;;;;;18.87;17.07;;;7.60;39.50;;;;;;20793;6818;119227;-69
2022/03/20 01:00:44;;;;;;;19.10;17.15;;;7.20;41.60;;;;;;20791;6818;117620;-69
2022/03/20 01:03:09;;;;;;;19.90;17.90;;;7.10;40.80;;;;;;20803;6818;117960;-69
2022/03/20 01:05:35;;;;;;;18.63;16.63;;;7.00;41.30;;;;;;20789;6818;123124;-69
2022/03/20 01:08:01;;;;;;;20.93;19.03;;;6.90;41.70;;;;;;20593;6818;337164;-69
2022/03/20 01:10:26;;;;;;;21.75;19.65;;;7.10;41.50;;;;;;20599;6818;311304;-69
2022/03/20 01:12:51;;;;;;;21.83;19.53;;;7.50;40.70;;;;;;20806;6818;117513;-69
2022/03/20 01:15:18;;;;;;;21.08;19.08;;;7.50;40.70;;;;;;20583;6818;277520;-68
2022/03/20 01:17:43;;;;;;;20.23;18.42;;;7.70;40.70;;;;;;20587;6818;310263;-69
2022/03/20 01:20:09;;;;;;;19.50;17.73;;;7.90;40.10;;;;;;20806;6818;117275;-68
2022/03/20 01:22:34;;;;;;;19.63;17.73;;;7.90;40.40;;;;;;20796;6818;117676;-69
2022/03/20 01:25:00;;;;;;;21.77;19.87;;;7.60;41.00;;;;;;20596;6818;306785;-69
2022/03/20 01:27:25;;;;;;;21.48;19.58;;;7.60;39.90;;;;;;20570;6818;277877;-69
2022/03/20 01:29:51;;;;;;;21.65;19.75;;;7.90;39.50;;;;;;20575;6818;306721;-69
2022/03/20 01:32:17;;;;;;;19.23;17.42;;;8.10;39.60;;;;;;20810;6818;117231;-69
2022/03/20 01:34:42;;;;;;;17.70;16.17;;;8.00;40.00;;;;;;20802;6818;117325;-69
2022/03/20 01:37:08;;;;;;;21.77;19.63;;;7.60;40.50;;;;;;20598;6818;277433;-70
2022/03/20 01:39:33;;;;;;;22.27;20.23;;;7.70;40.70;;;;;;20567;6818;277404;-70
2022/03/20 01:41:58;;;;;;;22.90;20.87;;;7.90;39.30;;;;;;20592;6818;311757;-70
2022/03/20 01:44:31;;;;;;;19.27;17.37;;;7.90;39.10;;;;;;20804;6818;117294;-69
2022/03/20 01:46:57;;;;;;;19.60;17.70;;;7.90;39.10;;;;;;20797;6818;117151;-70
2022/03/20 01:49:22;;;;;;;21.67;19.77;;;7.50;39.80;;;;;;20577;6816;308181;-70
2022/03/20 01:54:33;;;;;;;20.37;18.30;;;7.70;39.50;;;;;;20816;6817;117304;-70
2022/03/20 01:56:59;;;;;;;22.25;20.23;;;7.60;39.90;;;;;;20602;6817;306283;-70
2022/03/20 01:59:24;;;;;;;21.77;19.67;;;7.60;39.50;;;;;;20576;6817;307196;-70
2022/03/20 02:01:50;;;;;;;22.13;20.13;;;7.90;39.10;;;;;;20591;6817;308416;-69
2022/03/20 02:04:15;;;;;;;20.67;18.67;;;8.00;38.40;;;;;;20809;6817;117057;-69
2022/03/20 02:06:41;;;;;;;21.23;19.40;;;7.80;38.90;;;;;;20600;6817;292888;-70
2022/03/20 02:09:07;;;;;;;20.80;18.97;;;7.80;39.80;;;;;;20592;6818;306801;-70
2022/03/20 02:11:33;;;;;;;18.87;17.17;;;7.90;39.10;;;;;;20787;6818;118276;-69
2022/03/20 02:13:58;;;;;;;21.90;20.00;;;7.70;39.10;;;;;;20577;6818;336620;-69
2022/03/20 02:16:24;;;;;;;21.57;19.67;;;7.70;39.10;;;;;;20581;6818;337524;-70
2022/03/20 02:18:50;;;;;;;22.00;20.00;;;7.90;39.00;;;;;;20592;6818;311399;-69
2022/03/20 02:21:15;;;;;;;19.83;18.00;;;8.00;39.60;;;;;;20808;6818;117244;-69
2022/03/20 02:23:41;;;;;;;21.17;19.25;;;7.70;39.60;;;;;;20578;6818;320832;-70
2022/03/20 02:26:07;;;;;;;18.60;16.67;;;7.70;39.50;;;;;;20801;6818;119341;-69
2022/03/20 02:28:33;;;;;;;19.90;17.90;;;7.60;40.10;;;;;;20811;6818;116289;-69
2022/03/20 02:30:58;;;;;;;17.07;15.47;;;7.30;40.80;;;;;;20802;6818;118325;-69
2022/03/20 02:33:27;;;;;;;20.95;19.10;;;7.10;41.30;;;;;;20569;6818;319172;-70
2022/03/20 02:35:49;;;;;;;20.67;18.87;;;7.20;40.60;;;;;;20594;6818;337355;-69
2022/03/20 02:38:15;;;;;;;19.70;17.70;;;7.60;40.30;;;;;;20812;6818;117711;-70
2022/03/20 02:40:40;;;;;;;21.43;19.53;;;7.50;40.30;;;;;;20577;6818;306726;-70
2022/03/20 02:43:06;;;;;;;21.67;19.57;;;7.60;39.00;;;;;;20589;6818;279561;-69
2022/03/20 02:45:31;;;;;;;21.33;19.13;;;7.80;38.50;;;;;;20783;6818;117710;-69
2022/03/20 02:47:57;;;;;;;22.10;20.00;;;7.70;38.90;;;;;;20585;6818;335975;-70
2022/03/20 02:50:24;;;;;;;22.07;20.00;;;7.70;38.50;;;;;;20576;6818;278256;-69
2022/03/20 02:52:56;;;;;;;18.65;16.85;;;7.90;38.20;;;;;;20798;6818;118163;-69
2022/03/20 02:55:31;;;;;;;19.13;17.30;;;7.30;39.40;;;;;;20771;6818;118368;-69
2022/03/20 02:57:56;;;;;;;21.30;19.30;;;7.30;39.30;;;;;;20578;6818;310801;-70
2022/03/20 03:00:22;;;;;;;20.57;18.73;;;7.40;38.60;;;;;;20588;6816;311408;-70
2022/03/20 03:02:48;;;;;;;20.98;19.00;;;7.60;37.80;;;;;;20592;6817;280778;-70
2022/03/20 03:05:14;;;;;;;19.30;16.92;;;7.80;37.40;;;;;;20807;6817;117174;-70
2022/03/20 03:11:10;;;;;;;21.57;19.67;;;7.60;37.60;;;;;;20592;6817;307308;-69
2022/03/20 03:12:53;;;;;;;21.03;19.23;;;7.80;37.30;;;;;;20277;6817;307218;-69
2022/03/20 03:15:19;;;;;;;19.47;17.70;;;7.90;37.30;;;;;;20795;6817;117686;-69
2022/03/20 03:17:44;;;;;;;20.47;18.63;;;7.70;37.80;;;;;;20603;6817;307658;-70
2022/03/20 03:20:10;;;;;;;18.77;16.90;;;7.70;38.20;;;;;;20802;6818;117258;-70
2022/03/20 03:22:35;;;;;;;18.53;16.03;;;7.50;38.60;;;;;;20805;6818;118112;-69
2022/03/20 03:25:01;;;;;;;20.80;18.87;;;7.20;39.20;;;;;;20591;6818;276894;-69
2022/03/20 03:27:26;;;;;;;20.93;18.93;;;7.20;38.10;;;;;;20573;6818;310352;-70
2022/03/20 03:29:52;;;;;;;20.00;18.27;;;7.50;37.40;;;;;;20591;6818;335382;-69
2022/03/20 03:32:17;;;;;;;19.15;17.08;;;7.70;36.70;;;;;;20800;6818;117291;-69
2022/03/20 03:37:28;;;;;;;20.77;18.80;;;7.10;37.90;;;;;;20577;6818;277914;-68
2022/03/20 03:39:54;;;;;;;20.63;18.73;;;7.20;37.30;;;;;;20587;6818;282603;-69
2022/03/20 03:42:21;;;;;;;19.95;18.12;;;7.40;36.90;;;;;;20598;6818;277374;-69
2022/03/20 03:44:46;;;;;;;18.33;16.48;;;7.40;37.00;;;;;;20793;6818;117288;-69
2022/03/20 03:47:11;;;;;;;18.13;16.33;;;7.40;37.00;;;;;;20789;6818;117451;-69
2022/03/20 03:49:39;;;;;;;20.67;18.83;;;7.10;37.60;;;;;;20567;6818;307662;-69
2022/03/20 03:52:04;;;;;;;18.57;16.77;;;7.10;37.60;;;;;;20807;6818;121340;-70
2022/03/20 03:54:29;;;;;;;20.13;18.23;;;7.10;38.10;;;;;;20581;6818;307687;-69
2022/03/20 03:56:55;;;;;;;17.63;15.90;;;7.20;37.50;;;;;;20805;6818;123628;-70
2022/03/20 03:59:20;;;;;;;17.40;15.73;;;7.10;37.70;;;;;;20789;6818;120411;-70
2022/03/20 04:01:46;;;;;;;20.30;18.50;;;6.90;38.20;;;;;;20584;6818;303393;-70
2022/03/20 04:04:11;;;;;;;18.03;16.37;;;7.00;37.70;;;;;;20805;6818;117511;-70
2022/03/20 04:06:37;;;;;;;20.17;17.70;;;7.00;38.00;;;;;;20809;6818;117732;-70
2022/03/20 04:09:02;;;;;;;20.83;18.83;;;6.80;38.30;;;;;;20594;6818;336827;-70
2022/03/20 04:11:28;;;;;;;18.90;16.90;;;7.00;38.00;;;;;;20771;6816;118165;-70
2022/03/20 04:13:54;;;;;;;19.30;17.60;;;7.10;38.10;;;;;;20587;6817;306805;-69
2022/03/20 04:16:20;;;;;;;20.63;17.73;;;7.10;38.10;;;;;;20801;6817;117321;-69
2022/03/20 04:18:45;;;;;;;20.87;18.97;;;7.10;38.40;;;;;;20589;6817;307222;-69
2022/03/20 04:21:11;;;;;;;18.42;16.52;;;7.30;38.80;;;;;;20800;6817;117247;-69
2022/03/20 04:23:45;;;;;;;19.02;17.33;;;7.30;39.00;;;;;;20576;6817;336675;-69
2022/03/20 04:26:08;;;;;;;20.30;18.50;;;7.40;39.50;;;;;;20589;6817;282561;-68
2022/03/20 04:28:34;;;;;;;17.97;16.30;;;7.80;39.60;;;;;;20809;6817;117346;-68
2022/03/20 04:30:59;;;;;;;19.47;17.47;;;7.70;39.70;;;;;;20803;6817;117159;-70
2022/03/20 04:33:25;;;;;;;21.77;19.67;;;7.50;40.10;;;;;;20562;6818;336700;-69
2022/03/20 04:35:50;;;;;;;19.13;17.33;;;7.60;39.10;;;;;;20768;6818;117869;-69
2022/03/20 04:38:16;;;;;;;21.83;19.83;;;7.60;39.30;;;;;;20593;6818;335849;-69
2022/03/20 04:40:41;;;;;;;21.15;19.25;;;7.70;38.30;;;;;;20588;6818;337211;-69
2022/03/20 04:43:07;;;;;;;20.40;17.93;;;8.00;38.30;;;;;;20806;6818;117688;-69
2022/03/20 04:45:33;;;;;;;21.35;19.10;;;7.90;38.10;;;;;;20570;6818;306978;-69
2022/03/20 04:59:01;;;;;;;19.17;16.97;;;8.30;37.30;;;;;;20809;6818;117310;-69
2022/03/20 05:01:26;;;;;;;20.13;18.30;;;7.90;38.10;;;;;;20574;6818;277874;-68
2022/03/20 05:03:52;;;;;;;21.20;19.25;;;7.90;37.70;;;;;;20595;6818;313620;-69
2022/03/20 05:06:18;;;;;;;18.17;16.47;;;8.20;37.20;;;;;;20770;6818;118074;-71
2022/03/20 05:08:43;;;;;;;19.30;17.30;;;8.10;37.80;;;;;;20798;6818;117182;-73
2022/03/20 05:13:55;;;;;;;19.33;17.53;;;7.90;38.40;;;;;;20802;6818;117479;-73
2022/03/20 05:16:21;;;;;;;19.17;17.27;;;7.90;38.90;;;;;;20818;6818;117308;-71
2022/03/20 05:18:46;;;;;;;21.17;19.25;;;7.60;39.50;;;;;;20606;6818;306336;-72
2022/03/20 05:21:12;;;;;;;21.77;19.77;;;7.70;40.10;;;;;;20601;6818;336711;-73
2022/03/20 05:23:39;;;;;;;21.55;19.65;;;8.00;39.50;;;;;;20583;6816;294789;-71
2022/03/20 05:26:05;;;;;;;19.83;17.57;;;8.10;39.00;;;;;;20808;6817;117546;-71
2022/03/20 05:28:31;;;;;;;23.15;20.95;;;8.10;39.00;;;;;;20591;6817;336231;-72
2022/03/20 05:30:56;;;;;;;24.52;22.33;;;8.10;39.10;;;;;;20593;6817;285130;-73
2022/03/20 05:33:22;;;;;;;24.43;22.10;;;8.30;39.10;;;;;;20567;6817;340823;-71
2022/03/20 05:35:47;;;;;;;25.08;22.77;;;8.50;39.10;;;;;;20589;6817;312651;-71
2022/03/20 05:38:13;;;;;;;22.63;20.37;;;8.60;38.80;;;;;;20809;6817;117621;-72
2022/03/20 05:40:39;;;;;;;24.97;22.67;;;8.40;39.20;;;;;;20579;6817;344235;-73
2022/03/20 05:43:06;;;;;;;22.77;19.93;;;8.40;39.10;;;;;;20799;6818;117154;-72
2022/03/20 05:45:31;;;;;;;24.30;22.10;;;8.20;39.20;;;;;;20564;6818;307169;-72
2022/03/20 05:47:56;;;;;;;22.62;20.25;;;8.20;39.30;;;;;;20802;6818;124192;-73
2022/03/20 05:50:23;;;;;;;25.47;23.07;;;8.10;39.60;;;;;;20592;6818;307192;-72
2022/03/20 05:52:47;;;;;;;22.13;19.95;;;8.20;39.70;;;;;;20801;6818;117424;-73
2022/03/20 05:55:13;;;;;;;24.40;22.17;;;8.00;39.90;;;;;;20589;6818;280855;-73
2022/03/20 06:00:24;;;;;;;25.13;20.53;;;8.00;40.30;;;;;;20785;6818;117271;-71
2022/03/20 06:02:50;;;;;;;21.63;19.37;;;7.70;40.70;;;;;;20781;6818;117132;-72
2022/03/20 06:05:16;;;;;;;25.40;23.00;;;7.60;41.60;;;;;;20574;6818;306335;-72
2022/03/20 06:07:46;;;;;;;25.07;22.80;;;7.60;40.80;;;;;;20401;6818;307252;-68
2022/03/20 06:10:08;;;;;;;23.33;20.93;;;7.90;40.30;;;;;;20758;6818;118875;-69
2022/03/20 06:12:34;;;;;;;24.83;22.53;;;8.00;40.30;;;;;;20588;6818;341590;-75
2022/03/20 06:15:00;;;;;;;23.77;21.30;;;8.00;40.20;;;;;;20801;6818;117302;-68
2022/03/20 06:17:26;;;;;;;22.77;20.47;;;7.80;41.00;;;;;;20790;6818;117607;-70
2022/03/20 06:19:52;;;;;;;24.53;22.30;;;7.80;41.00;;;;;;20600;6818;276981;-70
2022/03/20 06:22:18;;;;;;;22.85;20.58;;;7.90;40.20;;;;;;20811;6818;117417;-72
2022/03/20 06:24:44;;;;;;;22.57;20.33;;;7.90;40.20;;;;;;20804;6818;117346;-73
2022/03/20 06:27:11;;;;;;;25.83;23.47;;;8.00;39.80;;;;;;20586;6818;307294;-71
2022/03/20 06:29:36;;;;;;;25.90;23.52;;;8.00;39.80;;;;;;20559;6818;340489;-72
2022/03/20 06:32:03;;;;;;;25.92;23.42;;;8.40;38.80;;;;;;20587;6818;322448;-72
2022/03/20 06:34:29;;;;;;;25.75;23.35;;;8.80;38.60;;;;;;20583;6816;330214;-72
2022/03/20 06:36:57;;;;;;;24.98;22.80;;;9.10;38.00;;;;;;20583;6817;310532;-71
2022/03/20 06:39:20;;;;;;;22.58;20.40;;;9.40;37.70;;;;;;20763;6817;126966;-70
2022/03/20 06:41:45;;;;;;;25.83;23.33;;;9.30;38.20;;;;;;20592;6817;293663;-71
2022/03/20 06:44:15;;;;;;;21.62;19.73;;;9.40;37.50;;;;;;20800;6817;117248;-72
2022/03/20 06:46:39;;;;;;;25.67;23.27;;;9.30;38.10;;;;;;20572;6817;306856;-72
2022/03/20 06:49:03;;;;;;;32.77;27.80;;;9.40;38.20;;;;;;20796;6817;117181;-71
2022/03/20 06:51:28;;;;;;;24.30;21.70;;;9.40;38.20;;;;;;20779;6817;121409;-72
2022/03/20 06:53:56;;;;;;;26.37;22.30;;;9.20;38.80;;;;;;20790;6817;117350;-72
2022/03/20 06:56:20;;;;;;;26.05;23.45;;;9.10;39.20;;;;;;20574;6818;276620;-71
2022/03/20 06:58:48;;;;;;;23.52;20.58;;;9.40;37.60;;;;;;20767;6818;118272;-77
2022/03/20 07:01:14;;;;;;;25.40;23.10;;;9.40;38.00;;;;;;20580;6818;288103;-75
2022/03/20 07:03:39;;;;;;;23.23;20.90;;;9.60;37.00;;;;;;20780;6818;117252;-75
2022/03/20 07:06:05;;;;;;;24.48;22.25;;;9.70;37.60;;;;;;20558;6818;335848;-74
2022/03/20 07:08:30;;;;;;;24.70;22.47;;;9.90;37.20;;;;;;20574;6818;306845;-76
2022/03/20 07:10:56;;;;;;;23.12;20.92;;;10.20;36.50;;;;;;20822;6818;69178;-76
2022/03/20 07:16:07;;;;;;;26.17;23.70;;;10.20;37.40;;;;;;20575;6818;282206;-83
2022/03/20 07:18:33;;;;;;;24.83;22.63;;;10.40;36.10;;;;;;20582;6818;290097;-75
2022/03/20 07:20:58;;;;;;;26.67;24.17;;;10.70;35.70;;;;;;20563;6818;278774;-81
2022/03/20 07:23:24;;;;;;;24.03;21.57;;;11.00;35.30;;;;;;20762;6818;117845;-76
2022/03/20 07:31:20;;;;;;;23.37;20.60;;;10.70;37.10;;;;;;20756;6818;118018;-78
2022/03/20 07:33:48;;;;;;;23.90;20.85;;;10.60;37.60;;;;;;20795;6818;118218;-70
2022/03/20 07:36:12;;;;;;;25.77;23.37;;;10.60;38.50;;;;;;20567;6818;312590;-74
2022/03/20 07:38:37;;;;;;;24.10;21.67;;;10.80;36.60;;;;;;20788;6818;117465;-74
2022/03/20 07:41:02;;;;;;;25.40;23.17;;;11.10;36.90;;;;;;20582;6818;325169;-74
2022/03/20 07:43:28;;;;;;;26.00;23.80;;;11.40;35.80;;;;;;20563;6818;283184;-74
2022/03/20 07:45:56;;;;;;;24.13;21.93;;;11.80;34.90;;;;;;20798;6816;117864;-75
2022/03/20 07:48:23;;;;;;;22.33;20.10;;;11.90;35.20;;;;;;20790;6817;117161;-75
2022/03/20 07:50:49;;;;;;;23.67;21.37;;;11.90;36.30;;;;;;20793;6817;117451;-75
2022/03/20 07:53:16;;;;;;;24.00;21.70;;;11.80;36.30;;;;;;20788;6817;117461;-73
2022/03/20 07:55:39;;;;;;;26.07;23.77;;;11.80;36.60;;;;;;20532;6817;328988;-72
2022/03/20 07:58:05;;;;;;;26.00;23.60;;;12.00;35.00;;;;;;20587;6817;277339;-75
2022/03/20 08:00:30;;;;;;;25.80;23.58;;;12.50;34.40;;;;;;20578;6817;307269;-77
2022/03/20 08:02:57;;;;;;;23.58;21.08;;;13.00;35.00;;;;;;20798;6817;117449;-75
2022/03/20 08:05:24;;;;;;;24.47;22.13;;;13.00;34.70;;;;;;20763;6817;121447;-78
2022/03/20 08:07:48;;;;;;;22.92;20.62;;;12.90;35.50;;;;;;20791;6818;117945;-78
2022/03/20 08:10:14;;;;;;;23.07;20.80;;;12.80;35.40;;;;;;20796;6818;117351;-75
2022/03/20 08:12:39;;;;;;;22.90;20.70;;;12.90;35.90;;;;;;20791;6818;117282;-78
2022/03/20 08:15:05;;;;;;;25.83;23.53;;;12.90;36.10;;;;;;20574;6818;280381;-79
2022/03/20 08:17:32;;;;;;;25.57;23.37;;;13.20;33.40;;;;;;20539;6818;306258;-73
2022/03/20 08:19:58;;;;;;;23.60;21.37;;;13.70;33.00;;;;;;20761;6818;120723;-75
2022/03/20 08:22:25;;;;;;;24.70;22.60;;;13.80;33.50;;;;;;20572;6818;310354;-75
2022/03/20 08:24:51;;;;;;;25.40;23.20;;;14.20;32.10;;;;;;20571;6818;336770;-71
2022/03/20 08:27:19;;;;;;;24.53;22.13;;;14.20;32.10;;;;;;20772;6818;123119;-75
2022/03/20 08:29:42;;;;;;;26.10;23.73;;;14.20;32.90;;;;;;20587;6818;278148;-77
2022/03/20 08:32:08;;;;;;;23.98;21.73;;;14.30;31.40;;;;;;20823;6818;117867;-78
2022/03/20 08:34:35;;;;;;;25.50;23.33;;;14.40;32.20;;;;;;20578;6818;317395;-72
2022/03/20 08:37:01;;;;;;;25.60;23.40;;;14.50;31.40;;;;;;20587;6818;332611;-75
2022/03/20 08:39:27;;;;;;;24.77;22.70;;;14.90;30.70;;;;;;20576;6818;282531;-77
2022/03/20 08:41:53;;;;;;;25.58;23.27;;;15.20;30.40;;;;;;20587;6818;306736;-75
2022/03/20 08:44:18;;;;;;;24.60;22.20;;;15.40;29.70;;;;;;20784;6818;117249;-72
2022/03/20 08:46:43;;;;;;;22.60;20.37;;;15.40;30.60;;;;;;20798;6818;118252;-72
2022/03/20 08:49:09;;;;;;;21.97;19.77;;;15.10;31.40;;;;;;20792;6818;117802;-74
2022/03/20 08:51:38;;;;;;;24.17;22.08;;;15.10;30.80;;;;;;20563;6818;277848;-74
2022/03/20 08:54:03;;;;;;;24.77;22.58;;;15.50;29.70;;;;;;20579;6818;281135;-75
2022/03/20 08:56:28;;;;;;;22.67;20.60;;;15.40;29.70;;;;;;20796;6818;117918;-75
2022/03/20 08:58:54;;;;;;;23.27;20.83;;;15.50;30.60;;;;;;20805;6816;117210;-76
2022/03/20 09:01:19;;;;;;;23.93;21.77;;;15.40;31.40;;;;;;20558;6817;307361;-75
2022/03/20 09:03:49;;;;;;;21.77;19.85;;;15.50;30.80;;;;;;20783;6817;119624;-75
2022/03/20 09:06:10;;;;;;;21.93;19.83;;;15.50;31.60;;;;;;20791;6817;117559;-75
2022/03/20 09:08:36;;;;;;;24.70;22.50;;;15.40;31.90;;;;;;20596;6817;277257;-75
2022/03/20 09:11:02;;;;;;;21.67;19.67;;;15.70;31.40;;;;;;20800;6817;121648;-75
2022/03/20 09:13:28;;;;;;;24.02;22.02;;;15.70;31.40;;;;;;20565;6817;323341;-75
2022/03/20 09:18:59;;;;;;;24.23;22.13;;;15.90;30.30;;;;;;20595;6817;308369;-75
2022/03/20 09:21:08;;;;;;;22.87;20.77;;;16.60;29.80;;;;;;20806;6818;117367;-75
2022/03/20 09:23:31;;;;;;;21.47;19.57;;;16.50;29.70;;;;;;20764;6818;118990;-75
2022/03/20 09:25:57;;;;;;;21.90;19.43;;;16.40;30.30;;;;;;20811;6818;118092;-76
2022/03/20 09:28:22;;;;;;;21.60;19.40;;;16.20;31.20;;;;;;20815;6818;117803;-75
2022/03/20 09:30:48;;;;;;;20.90;18.90;;;16.20;31.90;;;;;;20812;6818;117308;-75
2022/03/20 09:33:13;;;;;;;22.25;20.27;;;16.10;32.20;;;;;;20596;6818;282589;-77
2022/03/20 09:35:39;;;;;;;21.05;19.35;;;16.40;29.50;;;;;;20581;6818;277786;-75
2022/03/20 09:38:06;;;;;;;21.80;19.90;;;16.90;28.10;;;;;;20596;6818;312137;-75
2022/03/20 09:40:33;;;;;;;20.40;18.50;;;17.20;27.80;;;;;;20794;6818;117522;-75
2022/03/20 09:42:59;;;;;;;23.07;21.17;;;17.30;28.70;;;;;;20585;6818;296735;-75
2022/03/20 09:45:24;;;;;;;20.87;19.03;;;17.30;27.80;;;;;;20787;6818;119585;-76
2022/03/20 09:47:56;;;;;;;20.42;18.60;;;17.20;29.40;;;;;;20803;6818;117525;-75
2022/03/20 09:50:18;;;;;;;20.90;19.10;;;17.20;29.40;;;;;;20782;6818;117340;-77
2022/03/20 09:52:43;;;;;;;20.00;18.20;;;17.10;29.90;;;;;;20807;6818;117303;-76
2022/03/20 09:55:09;;;;;;;19.47;17.67;;;17.10;30.10;;;;;;20805;6818;117342;-75
2022/03/20 09:57:34;;;;;;;19.50;17.80;;;17.00;30.00;;;;;;20776;6818;123091;-75
2022/03/20 10:00:04;;;;;;;18.97;17.20;;;17.10;30.00;;;;;;20801;6818;117406;-75
2022/03/20 10:02:29;;;;;;;19.27;17.37;;;17.10;30.20;;;;;;20800;6818;117440;-76
2022/03/20 10:04:58;;;;;;;20.50;18.50;;;17.10;30.40;;;;;;20806;6818;117912;-76
2022/03/20 10:07:23;;;;;;;20.13;18.13;;;17.20;30.50;;;;;;20777;6818;117642;-75
2022/03/20 10:10:08;;;;;;;20.90;19.03;;;17.30;30.50;;;;;;20590;6816;291259;-75
2022/03/20 10:12:36;;;;;;;20.98;19.25;;;18.20;28.40;;;;;;20590;6817;306780;-75
2022/03/20 10:15:02;;;;;;;19.10;17.40;;;18.20;28.40;;;;;;20805;6817;117389;-75
2022/03/20 10:17:27;;;;;;;20.25;18.37;;;18.40;28.90;;;;;;20788;6817;117840;-75
2022/03/20 10:19:53;;;;;;;18.53;17.00;;;18.20;29.40;;;;;;20815;6817;118862;-76
2022/03/20 10:22:19;;;;;;;20.50;18.70;;;18.20;30.00;;;;;;20599;6817;310866;-75
2022/03/20 10:24:47;;;;;;;20.23;18.62;;;18.30;27.20;;;;;;20590;6817;336744;-75
2022/03/20 10:27:16;;;;;;;20.27;18.67;;;18.60;27.40;;;;;;20592;6817;306341;-75
2022/03/20 10:29:52;;;;;;;19.27;17.53;;;18.80;26.60;;;;;;20804;6818;118076;-77
2022/03/20 10:32:17;;;;;;;20.48;18.77;;;18.70;27.50;;;;;;20588;6818;311724;-75
2022/03/20 10:35:01;;;;;;;18.20;16.70;;;18.50;27.70;;;;;;20806;6818;117535;-75
2022/03/20 10:37:46;;;;;;;18.17;16.57;;;18.40;27.60;;;;;;20783;6818;119446;-75
2022/03/20 10:40:11;;;;;;;17.83;16.00;;;18.30;28.60;;;;;;20803;6818;117598;-75
2022/03/20 10:42:37;;;;;;;18.00;16.30;;;18.20;29.10;;;;;;20729;6818;123562;-75
2022/03/20 10:45:02;;;;;;;19.40;17.80;;;18.20;29.20;;;;;;20591;6818;306975;-75
2022/03/20 10:47:28;;;;;;;18.57;16.77;;;18.50;27.70;;;;;;20762;6818;118155;-75
2022/03/20 10:50:06;;;;;;;20.10;18.30;;;18.80;28.40;;;;;;20598;6818;277041;-75
2022/03/20 10:52:32;;;;;;;20.07;18.33;;;19.10;27.40;;;;;;20554;6818;285118;-75
2022/03/20 10:54:59;;;;;;;20.50;18.67;;;19.50;26.90;;;;;;20562;6818;293179;-75
2022/03/20 10:57:34;;;;;;;19.90;18.08;;;19.90;26.60;;;;;;20568;6818;340766;-75
2022/03/20 11:00:00;;;;;;;20.02;18.23;;;20.40;27.00;;;;;;20558;6818;306943;-75
2022/03/20 11:02:26;;;;;;;19.47;17.57;;;20.40;27.00;;;;;;20567;6818;307647;-75
2022/03/20 11:04:52;;;;;;;20.00;17.90;;;20.50;27.20;;;;;;20801;6818;117691;-74
2022/03/20 11:07:18;;;;;;;18.67;16.97;;;20.40;27.10;;;;;;20564;6818;302507;-79
2022/03/20 11:09:47;;;;;;;19.45;17.70;;;20.40;26.00;;;;;;20590;6818;336373;-75
2022/03/20 11:12:26;;;;;;;20.37;18.47;;;20.50;25.90;;;;;;20580;6818;306762;-81
2022/03/20 11:14:51;;;;;;;22.58;20.37;;;20.60;25.90;;;;;;20594;6818;277794;-70
2022/03/20 11:17:17;;;;;;;19.67;17.70;;;20.60;26.30;;;;;;20781;6818;117480;-70
2022/03/20 11:19:46;;;;;;;19.55;17.65;;;20.50;27.10;;;;;;20580;6818;335358;-70
2022/03/20 11:22:12;;;;;;;18.37;16.73;;;20.50;26.30;;;;;;20771;6816;117335;-72
2022/03/20 11:24:37;;;;;;;16.37;14.77;;;20.40;27.10;;;;;;20807;6817;117315;-76
2022/03/20 11:27:02;;;;;;;15.95;14.55;;;20.10;27.60;;;;;;20546;6817;284092;-76
2022/03/20 11:29:28;;;;;;;15.77;14.10;;;20.10;25.30;;;;;;20590;6817;278147;-75
2022/03/20 11:31:54;;;;;;;17.50;15.50;;;20.30;25.30;;;;;;20784;6817;117880;-74
2022/03/20 11:34:20;;;;;;;15.47;13.97;;;20.10;26.80;;;;;;20787;6817;117682;-77
2022/03/20 11:37:09;;;;;;;14.23;12.97;;;20.00;26.70;;;;;;20789;6817;118561;-77
2022/03/20 11:39:34;;;;;;;13.87;12.50;;;19.90;26.50;;;;;;20781;6817;141809;-81
2022/03/20 11:42:19;;;;;;;15.43;14.10;;;19.60;26.80;;;;;;20591;6818;336619;-76
2022/03/20 11:44:52;;;;;;;16.00;14.53;;;20.00;25.00;;;;;;20222;6818;283671;-77
2022/03/20 11:47:18;;;;;;;14.40;13.20;;;20.00;25.00;;;;;;20786;6818;117834;-77
2022/03/20 11:49:43;;;;;;;18.13;14.10;;;20.10;26.00;;;;;;20805;6818;117521;-77
2022/03/20 11:52:11;;;;;;;15.83;14.37;;;20.00;25.90;;;;;;20595;6818;278135;-79
2022/03/20 11:54:42;;;;;;;15.70;14.17;;;19.90;25.30;;;;;;20522;6818;313853;-81
2022/03/20 11:57:31;;;;;;;14.63;13.20;;;20.20;25.30;;;;;;20798;6818;117426;-74
2022/03/20 11:59:57;;;;;;;14.63;13.13;;;19.90;26.50;;;;;;20813;6818;117963;-74
2022/03/20 12:02:26;;;;;;;14.70;13.30;;;19.90;26.50;;;;;;20805;6818;117481;-73
2022/03/20 12:04:59;;;;;;;15.93;14.30;;;19.80;24.60;;;;;;20196;6818;310176;-73
2022/03/20 12:07:34;;;;;;;14.83;13.33;;;19.80;24.60;;;;;;20753;6818;120316;-78
2022/03/20 12:09:59;;;;;;;14.87;13.37;;;19.80;25.50;;;;;;20792;6818;118343;-73
2022/03/20 12:12:31;;;;;;;14.93;13.63;;;19.60;26.00;;;;;;20580;6818;320449;-81
2022/03/20 12:14:57;;;;;;;14.60;13.17;;;19.60;25.20;;;;;;20550;6818;280527;-81
2022/03/20 12:17:23;;;;;;;14.50;13.10;;;20.10;24.10;;;;;;20568;6818;282205;-77
2022/03/20 12:19:56;;;;;;;14.25;13.05;;;20.10;24.10;;;;;;20589;6818;344003;-77
2022/03/20 12:22:24;;;;;;;14.20;12.90;;;20.30;23.50;;;;;;20590;6818;302502;-79
2022/03/20 12:25:01;;;;;;;13.30;12.20;;;20.40;25.20;;;;;;20599;6818;277708;-77
2022/03/20 12:27:25;;;;;;;13.03;10.77;;;20.50;23.60;;;;;;20780;6818;119124;-74
2022/03/20 12:29:53;;;;;;;13.07;11.83;;;20.30;24.50;;;;;;20591;6818;336789;-79
2022/03/20 12:32:20;;;;;;;12.03;10.93;;;20.30;23.80;;;;;;20807;6816;122391;-75
2022/03/20 12:34:56;;;;;;;12.77;11.50;;;20.10;24.60;;;;;;20608;6817;280783;-78
2022/03/20 12:37:39;;;;;;;11.60;10.50;;;20.00;24.60;;;;;;20793;6817;118897;-80
2022/03/20 12:40:11;;;;;;;11.33;10.47;;;20.00;24.60;;;;;;20591;6817;306765;-72
2022/03/20 12:42:37;;;;;;;11.70;9.90;;;20.10;23.70;;;;;;20766;6817;118423;-77
2022/03/20 12:45:03;;;;;;;12.63;10.47;;;20.00;24.60;;;;;;20570;6817;305885;-77
2022/03/20 12:47:28;;;;;;;11.43;10.43;;;20.10;23.30;;;;;;20786;6817;117857;-74
2022/03/20 12:50:09;;;;;;;11.63;10.43;;;19.70;24.30;;;;;;20808;6817;117593;-75
2022/03/20 12:52:33;;;;;;;12.07;10.97;;;19.70;24.20;;;;;;20579;6818;307696;-74
2022/03/20 12:55:08;;;;;;;14.00;10.70;;;19.70;22.50;;;;;;20795;6818;117458;-74